sensor_id;sensor_type;location;lat;lon;timestamp;P1;durP1;ratioP1;P2;durP2;ratioP2
16660;SDS011;8444;52.012;5.048;2023-04-06T00:02:02;14.47;;;8.50;;
16660;SDS011;8444;52.012;5.048;2023-04-06T00:04:27;12.07;;;7.70;;
16660;SDS011;8444;52.012;5.048;2023-04-06T00:06:52;14.10;;;8.30;;
16660;SDS011;8444;52.012;5.048;2023-04-06T00:09:17;13.73;;;7.80;;
16660;SDS011;8444;52.012;5.048;2023-04-06T00:11:43;15.67;;;8.23;;
16660;SDS011;8444;52.012;5.048;2023-04-06T00:14:08;10.00;;;7.37;;
16660;SDS011;8444;52.012;5.048;2023-04-06T00:16:33;13.50;;;8.03;;
16660;SDS011;8444;52.012;5.048;2023-04-06T00:18:58;12.33;;;8.00;;
16660;SDS011;8444;52.012;5.048;2023-04-06T00:21:23;11.93;;;7.80;;
16660;SDS011;8444;52.012;5.048;2023-04-06T00:23:50;11.23;;;6.90;;
16660;SDS011;8444;52.012;5.048;2023-04-06T00:26:15;14.03;;;7.63;;
16660;SDS011;8444;52.012;5.048;2023-04-06T00:28:40;17.77;;;8.33;;
16660;SDS011;8444;52.012;5.048;2023-04-06T00:31:06;13.27;;;7.87;;
16660;SDS011;8444;52.012;5.048;2023-04-06T00:33:32;12.43;;;7.37;;
16660;SDS011;8444;52.012;5.048;2023-04-06T00:35:57;13.30;;;7.57;;
16660;SDS011;8444;52.012;5.048;2023-04-06T00:38:22;13.70;;;8.27;;
16660;SDS011;8444;52.012;5.048;2023-04-06T00:40:48;10.53;;;7.23;;
16660;SDS011;8444;52.012;5.048;2023-04-06T00:43:13;11.47;;;7.87;;
16660;SDS011;8444;52.012;5.048;2023-04-06T00:45:38;11.97;;;7.83;;
16660;SDS011;8444;52.012;5.048;2023-04-06T00:48:04;13.87;;;8.00;;
16660;SDS011;8444;52.012;5.048;2023-04-06T00:50:30;14.27;;;7.40;;
16660;SDS011;8444;52.012;5.048;2023-04-06T00:52:55;11.30;;;6.43;;
16660;SDS011;8444;52.012;5.048;2023-04-06T00:55:20;12.47;;;7.33;;
16660;SDS011;8444;52.012;5.048;2023-04-06T00:57:46;14.33;;;8.77;;
16660;SDS011;8444;52.012;5.048;2023-04-06T01:00:11;13.60;;;7.70;;
16660;SDS011;8444;52.012;5.048;2023-04-06T01:02:37;13.90;;;7.73;;
16660;SDS011;8444;52.012;5.048;2023-04-06T01:05:02;16.00;;;8.30;;
16660;SDS011;8444;52.012;5.048;2023-04-06T01:07:28;14.43;;;7.73;;
16660;SDS011;8444;52.012;5.048;2023-04-06T01:09:53;13.30;;;7.37;;
16660;SDS011;8444;52.012;5.048;2023-04-06T01:12:19;11.63;;;7.33;;
16660;SDS011;8444;52.012;5.048;2023-04-06T01:14:44;15.60;;;8.27;;
16660;SDS011;8444;52.012;5.048;2023-04-06T01:17:09;11.13;;;6.57;;
16660;SDS011;8444;52.012;5.048;2023-04-06T01:19:35;13.57;;;8.53;;
16660;SDS011;8444;52.012;5.048;2023-04-06T01:22:01;17.23;;;8.10;;
16660;SDS011;8444;52.012;5.048;2023-04-06T01:24:26;13.17;;;7.53;;
16660;SDS011;8444;52.012;5.048;2023-04-06T01:26:51;11.43;;;7.53;;
16660;SDS011;8444;52.012;5.048;2023-04-06T01:29:16;12.87;;;7.60;;
16660;SDS011;8444;52.012;5.048;2023-04-06T01:31:41;12.47;;;7.67;;
16660;SDS011;8444;52.012;5.048;2023-04-06T01:34:07;11.47;;;8.00;;
16660;SDS011;8444;52.012;5.048;2023-04-06T01:36:32;12.40;;;8.03;;
16660;SDS011;8444;52.012;5.048;2023-04-06T01:38:57;9.50;;;7.07;;
16660;SDS011;8444;52.012;5.048;2023-04-06T01:41:22;13.30;;;7.23;;
16660;SDS011;8444;52.012;5.048;2023-04-06T01:43:48;14.20;;;8.83;;
16660;SDS011;8444;52.012;5.048;2023-04-06T01:46:14;15.70;;;7.97;;
16660;SDS011;8444;52.012;5.048;2023-04-06T01:48:39;15.60;;;7.70;;
16660;SDS011;8444;52.012;5.048;2023-04-06T01:51:04;13.70;;;7.83;;
16660;SDS011;8444;52.012;5.048;2023-04-06T01:53:29;10.43;;;7.07;;
16660;SDS011;8444;52.012;5.048;2023-04-06T01:55:55;10.10;;;7.20;;
16660;SDS011;8444;52.012;5.048;2023-04-06T01:58:20;11.63;;;7.47;;
16660;SDS011;8444;52.012;5.048;2023-04-06T02:00:45;11.57;;;7.30;;
16660;SDS011;8444;52.012;5.048;2023-04-06T02:03:10;12.20;;;7.03;;
16660;SDS011;8444;52.012;5.048;2023-04-06T02:05:36;12.50;;;7.30;;
16660;SDS011;8444;52.012;5.048;2023-04-06T02:08:06;13.47;;;8.00;;
16660;SDS011;8444;52.012;5.048;2023-04-06T02:10:32;14.13;;;7.07;;
16660;SDS011;8444;52.012;5.048;2023-04-06T02:12:57;12.33;;;7.47;;
16660;SDS011;8444;52.012;5.048;2023-04-06T02:15:22;13.67;;;8.07;;
16660;SDS011;8444;52.012;5.048;2023-04-06T02:17:47;14.97;;;7.90;;
16660;SDS011;8444;52.012;5.048;2023-04-06T02:20:13;13.10;;;7.87;;
16660;SDS011;8444;52.012;5.048;2023-04-06T02:22:38;11.27;;;7.90;;
16660;SDS011;8444;52.012;5.048;2023-04-06T02:25:03;13.93;;;7.87;;
16660;SDS011;8444;52.012;5.048;2023-04-06T02:27:29;11.43;;;7.53;;
16660;SDS011;8444;52.012;5.048;2023-04-06T02:29:54;10.93;;;8.07;;
16660;SDS011;8444;52.012;5.048;2023-04-06T02:32:19;12.50;;;7.60;;
16660;SDS011;8444;52.012;5.048;2023-04-06T02:34:45;10.80;;;7.57;;
16660;SDS011;8444;52.012;5.048;2023-04-06T02:37:10;11.53;;;7.13;;
16660;SDS011;8444;52.012;5.048;2023-04-06T02:39:35;11.10;;;7.57;;
16660;SDS011;8444;52.012;5.048;2023-04-06T02:42:00;11.80;;;6.93;;
16660;SDS011;8444;52.012;5.048;2023-04-06T02:44:26;12.80;;;7.60;;
16660;SDS011;8444;52.012;5.048;2023-04-06T02:46:51;13.83;;;8.43;;
16660;SDS011;8444;52.012;5.048;2023-04-06T02:49:16;13.67;;;7.73;;
16660;SDS011;8444;52.012;5.048;2023-04-06T02:51:41;13.17;;;7.93;;
16660;SDS011;8444;52.012;5.048;2023-04-06T02:54:06;13.30;;;8.10;;
16660;SDS011;8444;52.012;5.048;2023-04-06T02:56:32;15.13;;;9.07;;
16660;SDS011;8444;52.012;5.048;2023-04-06T02:58:57;12.63;;;8.10;;
16660;SDS011;8444;52.012;5.048;2023-04-06T03:01:22;13.93;;;7.87;;
16660;SDS011;8444;52.012;5.048;2023-04-06T03:03:48;9.77;;;7.27;;
16660;SDS011;8444;52.012;5.048;2023-04-06T03:06:13;14.17;;;8.13;;
16660;SDS011;8444;52.012;5.048;2023-04-06T03:08:38;11.40;;;8.23;;
16660;SDS011;8444;52.012;5.048;2023-04-06T03:11:03;17.20;;;8.57;;
16660;SDS011;8444;52.012;5.048;2023-04-06T03:13:29;15.10;;;8.90;;
16660;SDS011;8444;52.012;5.048;2023-04-06T03:15:54;14.57;;;8.80;;
16660;SDS011;8444;52.012;5.048;2023-04-06T03:18:23;14.40;;;8.87;;
16660;SDS011;8444;52.012;5.048;2023-04-06T03:20:48;11.60;;;7.53;;
16660;SDS011;8444;52.012;5.048;2023-04-06T03:23:14;14.13;;;8.50;;
16660;SDS011;8444;52.012;5.048;2023-04-06T03:25:39;14.60;;;9.77;;
16660;SDS011;8444;52.012;5.048;2023-04-06T03:28:04;15.03;;;9.67;;
16660;SDS011;8444;52.012;5.048;2023-04-06T03:30:30;14.23;;;8.93;;
16660;SDS011;8444;52.012;5.048;2023-04-06T03:32:55;15.93;;;9.37;;
16660;SDS011;8444;52.012;5.048;2023-04-06T03:35:20;13.87;;;9.23;;
16660;SDS011;8444;52.012;5.048;2023-04-06T03:37:45;15.27;;;9.60;;
16660;SDS011;8444;52.012;5.048;2023-04-06T03:40:11;18.60;;;10.53;;
16660;SDS011;8444;52.012;5.048;2023-04-06T03:42:36;18.27;;;10.40;;
16660;SDS011;8444;52.012;5.048;2023-04-06T03:45:01;14.13;;;9.53;;
16660;SDS011;8444;52.012;5.048;2023-04-06T03:47:26;14.77;;;10.10;;
16660;SDS011;8444;52.012;5.048;2023-04-06T03:49:51;15.27;;;10.37;;
16660;SDS011;8444;52.012;5.048;2023-04-06T03:52:17;16.63;;;10.20;;
16660;SDS011;8444;52.012;5.048;2023-04-06T03:54:42;19.20;;;10.23;;
16660;SDS011;8444;52.012;5.048;2023-04-06T03:57:07;15.80;;;9.63;;
16660;SDS011;8444;52.012;5.048;2023-04-06T03:59:32;14.13;;;9.23;;
16660;SDS011;8444;52.012;5.048;2023-04-06T04:01:57;14.30;;;9.60;;
16660;SDS011;8444;52.012;5.048;2023-04-06T04:04:22;16.30;;;9.30;;
16660;SDS011;8444;52.012;5.048;2023-04-06T04:06:48;14.53;;;9.43;;
16660;SDS011;8444;52.012;5.048;2023-04-06T04:09:13;16.50;;;9.73;;
16660;SDS011;8444;52.012;5.048;2023-04-06T04:11:38;17.63;;;9.73;;
16660;SDS011;8444;52.012;5.048;2023-04-06T04:14:03;16.77;;;9.37;;
16660;SDS011;8444;52.012;5.048;2023-04-06T04:16:29;20.13;;;10.50;;
16660;SDS011;8444;52.012;5.048;2023-04-06T04:18:54;22.13;;;11.00;;
16660;SDS011;8444;52.012;5.048;2023-04-06T04:21:19;19.20;;;10.87;;
16660;SDS011;8444;52.012;5.048;2023-04-06T04:23:45;14.97;;;9.40;;
16660;SDS011;8444;52.012;5.048;2023-04-06T04:26:10;17.37;;;10.33;;
16660;SDS011;8444;52.012;5.048;2023-04-06T04:28:35;19.37;;;11.03;;
16660;SDS011;8444;52.012;5.048;2023-04-06T04:31:00;18.23;;;9.90;;
16660;SDS011;8444;52.012;5.048;2023-04-06T04:33:26;20.40;;;10.87;;
16660;SDS011;8444;52.012;5.048;2023-04-06T04:35:51;17.60;;;9.87;;
16660;SDS011;8444;52.012;5.048;2023-04-06T04:38:16;18.07;;;11.07;;
16660;SDS011;8444;52.012;5.048;2023-04-06T04:40:41;18.43;;;10.10;;
16660;SDS011;8444;52.012;5.048;2023-04-06T04:43:06;16.00;;;10.03;;
16660;SDS011;8444;52.012;5.048;2023-04-06T04:45:32;16.87;;;10.77;;
16660;SDS011;8444;52.012;5.048;2023-04-06T04:47:57;15.77;;;10.00;;
16660;SDS011;8444;52.012;5.048;2023-04-06T04:50:22;19.30;;;10.73;;
16660;SDS011;8444;52.012;5.048;2023-04-06T04:52:47;17.80;;;10.10;;
16660;SDS011;8444;52.012;5.048;2023-04-06T04:55:12;16.93;;;10.33;;
16660;SDS011;8444;52.012;5.048;2023-04-06T04:57:38;16.73;;;10.20;;
16660;SDS011;8444;52.012;5.048;2023-04-06T05:00:03;21.63;;;10.10;;
16660;SDS011;8444;52.012;5.048;2023-04-06T05:02:28;18.47;;;10.23;;
16660;SDS011;8444;52.012;5.048;2023-04-06T05:04:54;15.27;;;9.27;;
16660;SDS011;8444;52.012;5.048;2023-04-06T05:07:19;16.00;;;9.90;;
16660;SDS011;8444;52.012;5.048;2023-04-06T05:09:45;16.30;;;9.43;;
16660;SDS011;8444;52.012;5.048;2023-04-06T05:12:11;17.63;;;11.30;;
16660;SDS011;8444;52.012;5.048;2023-04-06T05:14:36;16.10;;;10.20;;
16660;SDS011;8444;52.012;5.048;2023-04-06T05:17:01;19.03;;;10.03;;
16660;SDS011;8444;52.012;5.048;2023-04-06T05:19:26;17.87;;;11.37;;
16660;SDS011;8444;52.012;5.048;2023-04-06T05:21:52;16.87;;;10.20;;
16660;SDS011;8444;52.012;5.048;2023-04-06T05:24:17;15.63;;;9.93;;
16660;SDS011;8444;52.012;5.048;2023-04-06T05:26:42;17.03;;;10.23;;
16660;SDS011;8444;52.012;5.048;2023-04-06T05:29:07;18.47;;;11.17;;
16660;SDS011;8444;52.012;5.048;2023-04-06T05:31:32;17.27;;;10.20;;
16660;SDS011;8444;52.012;5.048;2023-04-06T05:33:58;16.57;;;9.87;;
16660;SDS011;8444;52.012;5.048;2023-04-06T05:36:23;19.40;;;10.73;;
16660;SDS011;8444;52.012;5.048;2023-04-06T05:38:48;18.97;;;10.00;;
16660;SDS011;8444;52.012;5.048;2023-04-06T05:41:15;17.27;;;10.13;;
16660;SDS011;8444;52.012;5.048;2023-04-06T05:43:40;14.30;;;9.07;;
16660;SDS011;8444;52.012;5.048;2023-04-06T05:46:06;17.73;;;10.60;;
16660;SDS011;8444;52.012;5.048;2023-04-06T05:48:31;16.20;;;10.60;;
16660;SDS011;8444;52.012;5.048;2023-04-06T05:50:56;20.90;;;11.33;;
16660;SDS011;8444;52.012;5.048;2023-04-06T05:53:21;16.70;;;9.73;;
16660;SDS011;8444;52.012;5.048;2023-04-06T05:55:47;17.00;;;10.70;;
16660;SDS011;8444;52.012;5.048;2023-04-06T05:58:12;16.43;;;10.97;;
16660;SDS011;8444;52.012;5.048;2023-04-06T06:00:37;20.17;;;10.60;;
16660;SDS011;8444;52.012;5.048;2023-04-06T06:03:02;18.90;;;10.17;;
16660;SDS011;8444;52.012;5.048;2023-04-06T06:05:31;24.53;;;11.93;;
16660;SDS011;8444;52.012;5.048;2023-04-06T06:07:56;15.87;;;10.57;;
16660;SDS011;8444;52.012;5.048;2023-04-06T06:10:21;18.03;;;10.47;;
16660;SDS011;8444;52.012;5.048;2023-04-06T06:12:46;18.90;;;10.97;;
16660;SDS011;8444;52.012;5.048;2023-04-06T06:15:11;18.13;;;10.20;;
16660;SDS011;8444;52.012;5.048;2023-04-06T06:17:37;20.23;;;10.03;;
16660;SDS011;8444;52.012;5.048;2023-04-06T06:20:03;19.07;;;10.50;;
16660;SDS011;8444;52.012;5.048;2023-04-06T06:22:30;17.90;;;10.27;;
16660;SDS011;8444;52.012;5.048;2023-04-06T06:24:55;16.10;;;10.47;;
16660;SDS011;8444;52.012;5.048;2023-04-06T06:27:20;15.20;;;9.97;;
16660;SDS011;8444;52.012;5.048;2023-04-06T06:29:46;19.67;;;10.60;;
16660;SDS011;8444;52.012;5.048;2023-04-06T06:32:11;16.77;;;10.13;;
16660;SDS011;8444;52.012;5.048;2023-04-06T06:34:36;21.43;;;11.70;;
16660;SDS011;8444;52.012;5.048;2023-04-06T06:37:01;17.27;;;10.73;;
16660;SDS011;8444;52.012;5.048;2023-04-06T06:39:27;20.43;;;11.63;;
16660;SDS011;8444;52.012;5.048;2023-04-06T06:41:53;22.53;;;11.17;;
16660;SDS011;8444;52.012;5.048;2023-04-06T06:44:19;16.43;;;10.63;;
16660;SDS011;8444;52.012;5.048;2023-04-06T06:46:45;15.60;;;9.87;;
16660;SDS011;8444;52.012;5.048;2023-04-06T06:49:10;17.87;;;10.07;;
16660;SDS011;8444;52.012;5.048;2023-04-06T06:51:37;17.10;;;10.47;;
16660;SDS011;8444;52.012;5.048;2023-04-06T06:54:02;16.50;;;10.80;;
16660;SDS011;8444;52.012;5.048;2023-04-06T06:56:27;20.40;;;11.27;;
16660;SDS011;8444;52.012;5.048;2023-04-06T06:58:53;19.07;;;10.80;;
16660;SDS011;8444;52.012;5.048;2023-04-06T07:01:18;16.23;;;10.00;;
16660;SDS011;8444;52.012;5.048;2023-04-06T07:03:43;21.03;;;11.27;;
16660;SDS011;8444;52.012;5.048;2023-04-06T07:06:08;18.40;;;10.60;;
16660;SDS011;8444;52.012;5.048;2023-04-06T07:08:33;19.90;;;11.17;;
16660;SDS011;8444;52.012;5.048;2023-04-06T07:10:59;20.03;;;12.07;;
16660;SDS011;8444;52.012;5.048;2023-04-06T07:13:24;16.97;;;11.07;;
16660;SDS011;8444;52.012;5.048;2023-04-06T07:15:51;18.87;;;11.17;;
16660;SDS011;8444;52.012;5.048;2023-04-06T07:18:17;17.30;;;10.50;;
16660;SDS011;8444;52.012;5.048;2023-04-06T07:20:42;17.27;;;11.23;;
16660;SDS011;8444;52.012;5.048;2023-04-06T07:23:08;20.50;;;11.33;;
16660;SDS011;8444;52.012;5.048;2023-04-06T07:25:33;18.97;;;10.70;;
16660;SDS011;8444;52.012;5.048;2023-04-06T07:27:58;18.47;;;10.97;;
16660;SDS011;8444;52.012;5.048;2023-04-06T07:30:23;21.23;;;10.97;;
16660;SDS011;8444;52.012;5.048;2023-04-06T07:32:51;20.47;;;11.37;;
16660;SDS011;8444;52.012;5.048;2023-04-06T07:35:16;20.90;;;11.90;;
16660;SDS011;8444;52.012;5.048;2023-04-06T07:37:41;20.33;;;12.57;;
16660;SDS011;8444;52.012;5.048;2023-04-06T07:40:07;22.00;;;11.67;;
16660;SDS011;8444;52.012;5.048;2023-04-06T07:42:32;20.43;;;10.87;;
16660;SDS011;8444;52.012;5.048;2023-04-06T07:44:58;16.60;;;10.20;;
16660;SDS011;8444;52.012;5.048;2023-04-06T07:47:23;18.83;;;10.30;;
16660;SDS011;8444;52.012;5.048;2023-04-06T07:49:48;21.90;;;11.43;;
16660;SDS011;8444;52.012;5.048;2023-04-06T07:52:13;19.07;;;11.77;;
16660;SDS011;8444;52.012;5.048;2023-04-06T07:54:40;19.27;;;11.03;;
16660;SDS011;8444;52.012;5.048;2023-04-06T07:57:05;22.23;;;11.57;;
16660;SDS011;8444;52.012;5.048;2023-04-06T07:59:30;20.30;;;11.63;;
16660;SDS011;8444;52.012;5.048;2023-04-06T08:01:55;22.03;;;11.63;;
16660;SDS011;8444;52.012;5.048;2023-04-06T08:04:21;20.03;;;11.07;;
16660;SDS011;8444;52.012;5.048;2023-04-06T08:06:46;21.40;;;11.73;;
16660;SDS011;8444;52.012;5.048;2023-04-06T08:09:11;18.80;;;11.50;;
16660;SDS011;8444;52.012;5.048;2023-04-06T08:11:36;18.67;;;11.50;;
16660;SDS011;8444;52.012;5.048;2023-04-06T08:14:02;22.07;;;12.67;;
16660;SDS011;8444;52.012;5.048;2023-04-06T08:16:27;22.40;;;12.07;;
16660;SDS011;8444;52.012;5.048;2023-04-06T08:18:52;20.77;;;11.90;;
16660;SDS011;8444;52.012;5.048;2023-04-06T08:21:17;25.33;;;12.57;;
16660;SDS011;8444;52.012;5.048;2023-04-06T08:23:42;19.00;;;11.53;;
16660;SDS011;8444;52.012;5.048;2023-04-06T08:26:08;19.93;;;11.93;;
16660;SDS011;8444;52.012;5.048;2023-04-06T08:28:34;20.47;;;11.47;;
16660;SDS011;8444;52.012;5.048;2023-04-06T08:31:03;20.33;;;11.97;;
16660;SDS011;8444;52.012;5.048;2023-04-06T08:33:28;21.13;;;12.40;;
16660;SDS011;8444;52.012;5.048;2023-04-06T08:35:53;21.23;;;13.00;;
16660;SDS011;8444;52.012;5.048;2023-04-06T08:38:18;23.67;;;14.23;;
16660;SDS011;8444;52.012;5.048;2023-04-06T08:40:43;25.03;;;12.03;;
16660;SDS011;8444;52.012;5.048;2023-04-06T08:43:10;21.50;;;12.77;;
16660;SDS011;8444;52.012;5.048;2023-04-06T08:45:38;21.70;;;12.87;;
16660;SDS011;8444;52.012;5.048;2023-04-06T08:48:03;24.80;;;13.17;;
16660;SDS011;8444;52.012;5.048;2023-04-06T08:50:29;20.83;;;12.80;;
16660;SDS011;8444;52.012;5.048;2023-04-06T08:52:55;20.30;;;11.70;;
16660;SDS011;8444;52.012;5.048;2023-04-06T08:55:20;19.90;;;12.63;;
16660;SDS011;8444;52.012;5.048;2023-04-06T08:57:47;23.73;;;13.07;;
16660;SDS011;8444;52.012;5.048;2023-04-06T09:00:13;21.47;;;12.53;;
16660;SDS011;8444;52.012;5.048;2023-04-06T09:02:39;22.67;;;13.67;;
16660;SDS011;8444;52.012;5.048;2023-04-06T09:05:06;26.53;;;12.30;;
16660;SDS011;8444;52.012;5.048;2023-04-06T09:07:32;21.47;;;13.07;;
16660;SDS011;8444;52.012;5.048;2023-04-06T09:09:57;23.67;;;14.33;;
16660;SDS011;8444;52.012;5.048;2023-04-06T09:12:24;26.47;;;13.53;;
16660;SDS011;8444;52.012;5.048;2023-04-06T09:14:49;22.83;;;13.30;;
16660;SDS011;8444;52.012;5.048;2023-04-06T09:17:21;22.60;;;13.30;;
16660;SDS011;8444;52.012;5.048;2023-04-06T09:19:46;25.60;;;14.67;;
16660;SDS011;8444;52.012;5.048;2023-04-06T09:22:12;25.20;;;14.27;;
16660;SDS011;8444;52.012;5.048;2023-04-06T09:24:44;27.03;;;15.40;;
16660;SDS011;8444;52.012;5.048;2023-04-06T09:27:10;27.80;;;15.57;;
16660;SDS011;8444;52.012;5.048;2023-04-06T09:29:35;36.57;;;15.07;;
16660;SDS011;8444;52.012;5.048;2023-04-06T09:32:02;27.50;;;14.20;;
16660;SDS011;8444;52.012;5.048;2023-04-06T09:34:27;27.37;;;15.23;;
16660;SDS011;8444;52.012;5.048;2023-04-06T09:36:53;30.40;;;16.07;;
16660;SDS011;8444;52.012;5.048;2023-04-06T09:39:20;22.90;;;13.73;;
16660;SDS011;8444;52.012;5.048;2023-04-06T09:41:48;29.63;;;15.23;;
16660;SDS011;8444;52.012;5.048;2023-04-06T09:44:13;21.80;;;13.33;;
16660;SDS011;8444;52.012;5.048;2023-04-06T09:46:39;23.10;;;13.17;;
16660;SDS011;8444;52.012;5.048;2023-04-06T09:49:05;17.87;;;11.07;;
16660;SDS011;8444;52.012;5.048;2023-04-06T09:51:31;23.57;;;12.67;;
16660;SDS011;8444;52.012;5.048;2023-04-06T09:54:00;20.90;;;11.53;;
16660;SDS011;8444;52.012;5.048;2023-04-06T09:56:28;23.13;;;13.50;;
16660;SDS011;8444;52.012;5.048;2023-04-06T09:58:56;23.27;;;12.17;;
16660;SDS011;8444;52.012;5.048;2023-04-06T10:01:26;19.20;;;11.37;;
16660;SDS011;8444;52.012;5.048;2023-04-06T10:06:53;17.00;;;10.40;;
16660;SDS011;8444;52.012;5.048;2023-04-06T10:09:21;12.57;;;8.83;;
16660;SDS011;8444;52.012;5.048;2023-04-06T10:11:49;14.50;;;9.70;;
16660;SDS011;8444;52.012;5.048;2023-04-06T10:14:15;13.50;;;9.57;;
16660;SDS011;8444;52.012;5.048;2023-04-06T10:16:40;17.33;;;9.47;;
16660;SDS011;8444;52.012;5.048;2023-04-06T10:19:17;17.93;;;9.23;;
16660;SDS011;8444;52.012;5.048;2023-04-06T10:21:43;14.27;;;7.63;;
16660;SDS011;8444;52.012;5.048;2023-04-06T10:24:10;13.00;;;8.23;;
16660;SDS011;8444;52.012;5.048;2023-04-06T10:26:36;11.63;;;8.20;;
16660;SDS011;8444;52.012;5.048;2023-04-06T10:29:04;11.13;;;7.13;;
16660;SDS011;8444;52.012;5.048;2023-04-06T10:31:29;11.60;;;6.87;;
16660;SDS011;8444;52.012;5.048;2023-04-06T10:33:59;9.57;;;6.33;;
16660;SDS011;8444;52.012;5.048;2023-04-06T10:36:25;11.63;;;7.13;;
16660;SDS011;8444;52.012;5.048;2023-04-06T10:38:58;9.40;;;6.93;;
16660;SDS011;8444;52.012;5.048;2023-04-06T10:41:23;11.63;;;6.60;;
16660;SDS011;8444;52.012;5.048;2023-04-06T10:43:56;12.03;;;6.10;;
16660;SDS011;8444;52.012;5.048;2023-04-06T10:46:29;12.17;;;6.17;;
16660;SDS011;8444;52.012;5.048;2023-04-06T10:48:54;9.67;;;6.60;;
16660;SDS011;8444;52.012;5.048;2023-04-06T10:51:25;10.27;;;6.43;;
16660;SDS011;8444;52.012;5.048;2023-04-06T10:53:52;9.73;;;6.33;;
16660;SDS011;8444;52.012;5.048;2023-04-06T10:56:20;12.30;;;6.63;;
16660;SDS011;8444;52.012;5.048;2023-04-06T10:58:50;8.07;;;5.70;;
16660;SDS011;8444;52.012;5.048;2023-04-06T11:01:17;8.77;;;6.27;;
16660;SDS011;8444;52.012;5.048;2023-04-06T11:03:43;9.87;;;5.97;;
16660;SDS011;8444;52.012;5.048;2023-04-06T11:06:09;11.90;;;6.87;;
16660;SDS011;8444;52.012;5.048;2023-04-06T11:08:34;10.40;;;6.50;;
16660;SDS011;8444;52.012;5.048;2023-04-06T11:13:38;8.13;;;5.73;;
16660;SDS011;8444;52.012;5.048;2023-04-06T11:16:03;9.97;;;5.40;;
16660;SDS011;8444;52.012;5.048;2023-04-06T11:18:29;8.43;;;5.37;;
16660;SDS011;8444;52.012;5.048;2023-04-06T11:20:54;9.47;;;5.93;;
16660;SDS011;8444;52.012;5.048;2023-04-06T11:23:26;9.47;;;6.50;;
16660;SDS011;8444;52.012;5.048;2023-04-06T11:25:52;11.43;;;6.13;;
16660;SDS011;8444;52.012;5.048;2023-04-06T11:28:17;7.43;;;5.40;;
16660;SDS011;8444;52.012;5.048;2023-04-06T11:30:43;7.77;;;5.47;;
16660;SDS011;8444;52.012;5.048;2023-04-06T11:33:08;10.17;;;6.20;;
16660;SDS011;8444;52.012;5.048;2023-04-06T11:35:33;9.17;;;6.27;;
16660;SDS011;8444;52.012;5.048;2023-04-06T11:37:58;9.03;;;6.00;;
16660;SDS011;8444;52.012;5.048;2023-04-06T11:40:27;12.37;;;6.07;;
16660;SDS011;8444;52.012;5.048;2023-04-06T11:42:55;9.00;;;5.67;;
16660;SDS011;8444;52.012;5.048;2023-04-06T11:45:21;7.73;;;5.50;;
16660;SDS011;8444;52.012;5.048;2023-04-06T11:47:55;8.37;;;5.73;;
16660;SDS011;8444;52.012;5.048;2023-04-06T11:50:20;9.23;;;6.17;;
16660;SDS011;8444;52.012;5.048;2023-04-06T11:52:45;8.47;;;6.03;;
16660;SDS011;8444;52.012;5.048;2023-04-06T11:55:14;11.47;;;6.40;;
16660;SDS011;8444;52.012;5.048;2023-04-06T11:57:40;9.10;;;6.07;;
16660;SDS011;8444;52.012;5.048;2023-04-06T12:00:06;7.60;;;5.27;;
16660;SDS011;8444;52.012;5.048;2023-04-06T12:02:31;9.63;;;5.60;;
16660;SDS011;8444;52.012;5.048;2023-04-06T12:04:57;10.27;;;6.27;;
16660;SDS011;8444;52.012;5.048;2023-04-06T12:07:22;8.43;;;5.77;;
16660;SDS011;8444;52.012;5.048;2023-04-06T12:09:47;8.23;;;6.17;;
16660;SDS011;8444;52.012;5.048;2023-04-06T12:12:12;8.77;;;5.93;;
16660;SDS011;8444;52.012;5.048;2023-04-06T12:14:38;8.77;;;5.77;;
16660;SDS011;8444;52.012;5.048;2023-04-06T12:17:03;10.17;;;6.47;;
16660;SDS011;8444;52.012;5.048;2023-04-06T12:19:28;12.97;;;7.27;;
16660;SDS011;8444;52.012;5.048;2023-04-06T12:21:54;10.67;;;6.93;;
16660;SDS011;8444;52.012;5.048;2023-04-06T12:24:19;16.27;;;7.10;;
16660;SDS011;8444;52.012;5.048;2023-04-06T12:26:44;11.93;;;7.07;;
16660;SDS011;8444;52.012;5.048;2023-04-06T12:29:10;11.50;;;7.67;;
16660;SDS011;8444;52.012;5.048;2023-04-06T12:31:36;12.03;;;6.67;;
16660;SDS011;8444;52.012;5.048;2023-04-06T12:34:01;11.03;;;6.70;;
16660;SDS011;8444;52.012;5.048;2023-04-06T12:36:28;12.63;;;7.63;;
16660;SDS011;8444;52.012;5.048;2023-04-06T12:38:53;10.83;;;7.30;;
16660;SDS011;8444;52.012;5.048;2023-04-06T12:41:18;9.83;;;7.03;;
16660;SDS011;8444;52.012;5.048;2023-04-06T12:43:44;11.60;;;7.73;;
16660;SDS011;8444;52.012;5.048;2023-04-06T12:46:09;11.77;;;7.13;;
16660;SDS011;8444;52.012;5.048;2023-04-06T12:48:35;10.33;;;7.23;;
16660;SDS011;8444;52.012;5.048;2023-04-06T12:51:02;13.43;;;7.53;;
16660;SDS011;8444;52.012;5.048;2023-04-06T12:53:27;12.07;;;7.60;;
16660;SDS011;8444;52.012;5.048;2023-04-06T12:55:53;12.57;;;8.03;;
16660;SDS011;8444;52.012;5.048;2023-04-06T12:58:19;13.77;;;8.13;;
16660;SDS011;8444;52.012;5.048;2023-04-06T13:00:44;15.30;;;9.07;;
16660;SDS011;8444;52.012;5.048;2023-04-06T13:03:10;16.67;;;8.80;;
16660;SDS011;8444;52.012;5.048;2023-04-06T13:05:35;12.30;;;8.47;;
16660;SDS011;8444;52.012;5.048;2023-04-06T13:08:00;17.10;;;8.93;;
16660;SDS011;8444;52.012;5.048;2023-04-06T13:10:26;13.90;;;8.27;;
16660;SDS011;8444;52.012;5.048;2023-04-06T13:12:51;11.47;;;7.77;;
16660;SDS011;8444;52.012;5.048;2023-04-06T13:15:16;17.10;;;8.90;;
16660;SDS011;8444;52.012;5.048;2023-04-06T13:17:41;12.63;;;8.07;;
16660;SDS011;8444;52.012;5.048;2023-04-06T13:20:07;13.77;;;9.43;;
16660;SDS011;8444;52.012;5.048;2023-04-06T13:22:32;12.90;;;8.93;;
16660;SDS011;8444;52.012;5.048;2023-04-06T13:24:57;17.10;;;8.73;;
16660;SDS011;8444;52.012;5.048;2023-04-06T13:27:23;14.33;;;9.97;;
16660;SDS011;8444;52.012;5.048;2023-04-06T13:29:48;14.30;;;9.50;;
16660;SDS011;8444;52.012;5.048;2023-04-06T13:32:13;15.33;;;9.60;;
16660;SDS011;8444;52.012;5.048;2023-04-06T13:34:38;15.00;;;10.63;;
16660;SDS011;8444;52.012;5.048;2023-04-06T13:37:05;12.40;;;8.47;;
16660;SDS011;8444;52.012;5.048;2023-04-06T13:39:31;12.70;;;9.17;;
16660;SDS011;8444;52.012;5.048;2023-04-06T13:41:56;15.33;;;8.27;;
16660;SDS011;8444;52.012;5.048;2023-04-06T13:44:22;13.13;;;9.53;;
16660;SDS011;8444;52.012;5.048;2023-04-06T13:46:47;20.17;;;8.97;;
16660;SDS011;8444;52.012;5.048;2023-04-06T13:49:13;12.80;;;8.23;;
16660;SDS011;8444;52.012;5.048;2023-04-06T13:51:38;13.83;;;8.37;;
16660;SDS011;8444;52.012;5.048;2023-04-06T13:54:03;13.43;;;8.57;;
16660;SDS011;8444;52.012;5.048;2023-04-06T13:56:29;16.30;;;9.30;;
16660;SDS011;8444;52.012;5.048;2023-04-06T13:58:54;17.73;;;9.53;;
16660;SDS011;8444;52.012;5.048;2023-04-06T14:01:20;15.50;;;10.13;;
16660;SDS011;8444;52.012;5.048;2023-04-06T14:03:45;17.13;;;10.97;;
16660;SDS011;8444;52.012;5.048;2023-04-06T14:06:12;16.33;;;10.50;;
16660;SDS011;8444;52.012;5.048;2023-04-06T14:08:37;15.83;;;10.17;;
16660;SDS011;8444;52.012;5.048;2023-04-06T14:11:03;16.33;;;10.37;;
16660;SDS011;8444;52.012;5.048;2023-04-06T14:13:28;18.03;;;10.70;;
16660;SDS011;8444;52.012;5.048;2023-04-06T14:15:53;15.47;;;9.80;;
16660;SDS011;8444;52.012;5.048;2023-04-06T14:18:19;16.60;;;10.33;;
16660;SDS011;8444;52.012;5.048;2023-04-06T14:20:44;15.37;;;9.87;;
16660;SDS011;8444;52.012;5.048;2023-04-06T14:23:10;18.37;;;11.97;;
16660;SDS011;8444;52.012;5.048;2023-04-06T14:25:35;16.93;;;10.50;;
16660;SDS011;8444;52.012;5.048;2023-04-06T14:28:01;15.17;;;10.13;;
16660;SDS011;8444;52.012;5.048;2023-04-06T14:30:26;17.57;;;10.87;;
16660;SDS011;8444;52.012;5.048;2023-04-06T14:32:52;17.00;;;11.20;;
16660;SDS011;8444;52.012;5.048;2023-04-06T14:35:18;16.47;;;10.97;;
16660;SDS011;8444;52.012;5.048;2023-04-06T14:37:43;13.83;;;9.10;;
16660;SDS011;8444;52.012;5.048;2023-04-06T14:40:08;14.73;;;9.77;;